Time;durP1;ratioP1;P1;durP2;ratioP2;P2;SDS_P1;SDS_P2;PMS_P1;PMS_P2;Temp;Humidity;BMP_temperature;BMP_pressure;BME280_temperature;BME280_humidity;BME280_pressure;Samples;Min_cycle;Max_cycle;Signal;HPM_P1;HPM_P2
2021/09/18 00:01:47;;;;;;;6.18;4.05;;;19.10;77.40;;;;;;4994541;28;20026;-62
2021/09/18 00:04:13;;;;;;;5.35;4.18;;;19.10;77.40;;;;;;4995870;28;20502;-62
2021/09/18 00:06:39;;;;;;;6.57;4.22;;;19.10;77.80;;;;;;5013762;28;20030;-62
2021/09/18 00:09:05;;;;;;;5.75;3.85;;;19.10;78.00;;;;;;5010605;28;20045;-62
2021/09/18 00:11:31;;;;;;;5.90;4.55;;;19.10;77.90;;;;;;4994611;28;20034;-62
2021/09/18 00:13:56;;;;;;;5.47;4.50;;;19.10;78.20;;;;;;4994926;28;20053;-62
2021/09/18 00:16:22;;;;;;;6.03;4.72;;;19.10;78.40;;;;;;4994159;28;20109;-62
2021/09/18 00:18:48;;;;;;;6.05;4.60;;;19.10;78.60;;;;;;4994404;28;20042;-62
2021/09/18 00:21:13;;;;;;;6.00;4.57;;;19.10;78.80;;;;;;4994176;28;20031;-62
2021/09/18 00:23:39;;;;;;;6.78;4.65;;;19.20;79.00;;;;;;4996749;28;20443;-62
2021/09/18 00:26:05;;;;;;;6.03;4.72;;;19.20;79.00;;;;;;5006731;28;20398;-62
2021/09/18 00:28:30;;;;;;;6.28;4.95;;;19.20;78.90;;;;;;5016326;28;20030;-62
2021/09/18 00:30:56;;;;;;;6.15;4.10;;;19.20;79.00;;;;;;5017377;28;20030;-62
2021/09/18 00:33:22;;;;;;;6.57;4.50;;;19.30;79.20;;;;;;5016984;28;20164;-62
2021/09/18 00:35:48;;;;;;;6.05;4.60;;;19.30;80.00;;;;;;5016344;28;20469;-62
2021/09/18 00:38:13;;;;;;;5.30;4.03;;;19.30;79.40;;;;;;5016052;28;20058;-62
2021/09/18 00:40:41;;;;;;;6.03;4.20;;;19.30;79.40;;;;;;5017067;28;20022;-62
2021/09/18 00:43:07;;;;;;;5.85;4.70;;;19.30;79.50;;;;;;5017193;28;20022;-62
2021/09/18 00:45:33;;;;;;;5.78;4.20;;;19.30;79.70;;;;;;5015916;28;20581;-62
2021/09/18 00:47:58;;;;;;;5.85;4.53;;;19.30;80.00;;;;;;5016810;28;20037;-62
2021/09/18 00:50:25;;;;;;;5.80;4.30;;;19.30;80.10;;;;;;5017042;28;20425;-62
2021/09/18 00:52:51;;;;;;;5.30;4.15;;;19.30;80.10;;;;;;5015366;28;20034;-62
2021/09/18 00:55:16;;;;;;;5.57;4.47;;;19.30;80.50;;;;;;5016846;28;20018;-62
2021/09/18 00:57:42;;;;;;;5.30;4.35;;;19.40;80.50;;;;;;5016816;28;20417;-62
2021/09/18 01:00:10;;;;;;;5.78;4.28;;;19.40;80.60;;;;;;5015725;28;20037;-62
2021/09/18 01:02:36;;;;;;;5.35;4.60;;;19.40;80.70;;;;;;5019407;28;20034;-62
2021/09/18 01:05:04;;;;;;;6.25;4.35;;;19.40;80.90;;;;;;5027771;28;20029;-62
2021/09/18 01:07:30;;;;;;;5.50;4.32;;;19.40;81.10;;;;;;5016339;28;20453;-62
2021/09/18 01:09:57;;;;;;;5.60;4.40;;;19.40;81.20;;;;;;5016623;28;20068;-62
2021/09/18 01:12:22;;;;;;;5.88;4.65;;;19.40;81.50;;;;;;5016441;28;20416;-62
2021/09/18 01:14:48;;;;;;;6.00;4.60;;;19.40;81.60;;;;;;5016620;28;20057;-62
2021/09/18 01:17:16;;;;;;;6.90;4.53;;;19.40;81.60;;;;;;5003434;28;20037;-62
2021/09/18 01:19:42;;;;;;;6.72;5.10;;;19.40;81.70;;;;;;4996641;28;20030;-62
2021/09/18 01:22:09;;;;;;;5.80;5.20;;;19.40;82.10;;;;;;5002700;28;20061;-62
2021/09/18 01:24:38;;;;;;;6.75;5.38;;;19.40;82.10;;;;;;5016018;28;20081;-62
2021/09/18 01:27:05;;;;;;;6.43;5.20;;;19.40;82.30;;;;;;5015531;28;20046;-62
2021/09/18 01:29:31;;;;;;;8.13;5.35;;;19.40;82.00;;;;;;5016049;28;20061;-62
2021/09/18 01:31:57;;;;;;;6.63;5.00;;;19.40;82.30;;;;;;5016642;28;20026;-62
2021/09/18 01:34:24;;;;;;;7.53;5.60;;;19.40;82.20;;;;;;5013305;28;20029;-62
2021/09/18 01:36:51;;;;;;;8.02;5.75;;;19.40;82.60;;;;;;5015485;28;20100;-62
2021/09/18 01:39:18;;;;;;;10.70;6.45;;;19.40;82.80;;;;;;5015659;28;20024;-62
2021/09/18 01:41:45;;;;;;;8.43;6.28;;;19.40;82.60;;;;;;5016125;28;20447;-62
2021/09/18 01:44:12;;;;;;;8.00;6.45;;;19.40;82.60;;;;;;5015019;28;20058;-62
2021/09/18 01:46:39;;;;;;;8.65;6.22;;;19.40;82.80;;;;;;5014785;28;20030;-62
2021/09/18 01:49:10;;;;;;;9.35;6.90;;;19.40;83.00;;;;;;5015698;28;20084;-62
2021/09/18 01:51:40;;;;;;;9.32;6.32;;;19.50;83.10;;;;;;5008173;28;20406;-62
2021/09/18 01:54:05;;;;;;;10.77;6.95;;;19.50;82.90;;;;;;4996099;28;20499;-62
2021/09/18 01:56:31;;;;;;;7.28;5.72;;;19.50;83.00;;;;;;5006722;28;20022;-62
2021/09/18 01:58:56;;;;;;;9.23;6.78;;;19.50;83.10;;;;;;5015403;28;20041;-62
2021/09/18 02:01:22;;;;;;;10.13;6.38;;;19.50;83.10;;;;;;5015665;28;20029;-62
2021/09/18 02:03:48;;;;;;;7.18;5.93;;;19.50;83.20;;;;;;5015173;28;20034;-62
2021/09/18 02:06:16;;;;;;;8.52;6.55;;;19.60;83.20;;;;;;5013982;28;20033;-62
2021/09/18 02:08:42;;;;;;;8.45;6.00;;;19.50;83.10;;;;;;5014339;28;20029;-62
2021/09/18 02:11:08;;;;;;;8.88;6.43;;;19.50;83.10;;;;;;5015164;28;20022;-62
2021/09/18 02:13:33;;;;;;;8.13;5.95;;;19.60;83.10;;;;;;5015021;28;20496;-62
2021/09/18 02:15:59;;;;;;;6.70;5.35;;;19.60;83.30;;;;;;5015114;28;20026;-62
2021/09/18 02:18:24;;;;;;;7.22;5.45;;;19.60;83.10;;;;;;5015321;28;20018;-62
2021/09/18 02:20:50;;;;;;;8.73;6.82;;;19.60;83.10;;;;;;5014974;28;20361;-62
2021/09/18 02:23:16;;;;;;;11.25;7.38;;;19.60;83.10;;;;;;5014945;28;20050;-62
2021/09/18 02:25:42;;;;;;;10.75;7.45;;;19.60;83.00;;;;;;5014230;28;20057;-62
2021/09/18 02:28:08;;;;;;;9.25;6.88;;;19.60;83.20;;;;;;5014892;28;20069;-62
2021/09/18 02:30:35;;;;;;;9.07;7.22;;;19.60;83.30;;;;;;5014934;28;20053;-62
2021/09/18 02:33:02;;;;;;;10.20;8.23;;;19.60;83.20;;;;;;5014606;28;20121;-62
2021/09/18 02:35:29;;;;;;;12.48;8.15;;;19.60;83.40;;;;;;5014130;28;20072;-62
2021/09/18 02:37:57;;;;;;;11.98;9.00;;;19.60;83.40;;;;;;5014908;28;20026;-62
2021/09/18 02:40:24;;;;;;;11.77;8.52;;;19.60;83.20;;;;;;5014485;28;20022;-62
2021/09/18 02:42:52;;;;;;;15.15;9.15;;;19.60;83.20;;;;;;5012849;28;20497;-62
2021/09/18 02:45:19;;;;;;;18.08;9.65;;;19.60;83.10;;;;;;5011648;28;20100;-62
2021/09/18 02:47:45;;;;;;;25.05;11.32;;;19.60;83.00;;;;;;4995054;28;20029;-62
2021/09/18 02:50:13;;;;;;;31.42;13.30;;;19.60;82.80;;;;;;4994786;28;20030;-62
2021/09/18 02:52:39;;;;;;;32.53;14.40;;;19.60;82.80;;;;;;4994749;28;20025;-62
2021/09/18 02:55:06;;;;;;;40.28;17.05;;;19.60;82.70;;;;;;4996900;28;20030;-62
2021/09/18 02:57:31;;;;;;;50.05;19.55;;;19.60;82.60;;;;;;5014442;28;20034;-62
2021/09/18 02:59:57;;;;;;;54.55;20.95;;;19.60;82.60;;;;;;5013909;28;20018;-62
2021/09/18 03:02:23;;;;;;;60.35;20.08;;;19.60;82.80;;;;;;4994379;28;20130;-62
2021/09/18 03:04:48;;;;;;;63.45;24.70;;;19.60;82.70;;;;;;5000976;28;20022;-62
2021/09/18 03:07:14;;;;;;;50.85;21.05;;;19.60;82.50;;;;;;5014201;28;20026;-62
2021/09/18 03:09:39;;;;;;;46.38;17.40;;;19.60;82.50;;;;;;5014178;28;20045;-62
2021/09/18 03:12:05;;;;;;;39.83;16.13;;;19.60;82.20;;;;;;5014002;28;20037;-62
2021/09/18 03:14:31;;;;;;;32.63;14.85;;;19.60;82.20;;;;;;5014043;28;20061;-62
2021/09/18 03:16:57;;;;;;;32.85;14.65;;;19.60;82.30;;;;;;5004339;28;20046;-62
2021/09/18 03:19:23;;;;;;;31.50;14.75;;;19.60;82.20;;;;;;4996506;28;20495;-62
2021/09/18 03:21:49;;;;;;;36.47;14.85;;;19.60;82.20;;;;;;5012602;28;20390;-62
2021/09/18 03:24:14;;;;;;;41.90;17.17;;;19.50;82.10;;;;;;5014012;28;20057;-62
2021/09/18 03:26:43;;;;;;;32.90;15.95;;;19.60;82.20;;;;;;5013680;28;20034;-62
2021/09/18 03:29:09;;;;;;;35.65;18.17;;;19.60;81.90;;;;;;5013957;28;20036;-62
2021/09/18 03:31:35;;;;;;;37.38;16.60;;;19.60;81.90;;;;;;5014037;28;20034;-62
2021/09/18 03:34:00;;;;;;;30.75;15.80;;;19.60;82.10;;;;;;5012641;28;20018;-62
2021/09/18 03:36:26;;;;;;;31.38;15.02;;;19.60;82.00;;;;;;5013069;28;20026;-62
2021/09/18 03:38:52;;;;;;;31.20;15.88;;;19.50;82.00;;;;;;5013672;28;20029;-62
2021/09/18 03:41:18;;;;;;;34.33;16.58;;;19.60;82.00;;;;;;5013610;28;20445;-62
2021/09/18 03:43:43;;;;;;;34.42;15.40;;;19.60;82.60;;;;;;5013636;28;20101;-62
2021/09/18 03:46:09;;;;;;;32.70;16.40;;;19.60;81.90;;;;;;5013990;28;20034;-62
2021/09/18 03:48:34;;;;;;;34.63;15.95;;;19.60;81.90;;;;;;5013733;28;20030;-62
2021/09/18 03:51:01;;;;;;;31.90;15.43;;;19.60;82.10;;;;;;5012991;28;20363;-62
2021/09/18 03:53:27;;;;;;;24.85;13.43;;;19.60;82.10;;;;;;5014148;28;20065;-62
2021/09/18 03:55:53;;;;;;;20.60;12.52;;;19.60;82.00;;;;;;5013598;28;20410;-62
2021/09/18 03:58:18;;;;;;;16.17;9.85;;;19.60;82.10;;;;;;5017775;28;20382;-62
2021/09/18 04:00:44;;;;;;;13.30;8.18;;;19.60;82.10;;;;;;5017672;28;20033;-62
2021/09/18 04:03:10;;;;;;;14.35;8.60;;;19.60;82.10;;;;;;5017556;28;20034;-62
2021/09/18 04:05:38;;;;;;;12.63;7.57;;;19.60;82.10;;;;;;5016907;28;20065;-62
2021/09/18 04:08:08;;;;;;;14.25;8.35;;;19.60;82.10;;;;;;5006338;28;20542;-62
2021/09/18 04:10:34;;;;;;;10.68;6.95;;;19.60;82.20;;;;;;5017134;28;20056;-62
2021/09/18 04:13:00;;;;;;;12.32;7.53;;;19.60;82.30;;;;;;5017547;28;20494;-62
2021/09/18 04:15:25;;;;;;;12.15;7.65;;;19.60;82.30;;;;;;5017454;28;20026;-62
2021/09/18 04:17:51;;;;;;;14.95;9.20;;;19.60;82.30;;;;;;5017309;28;20018;-62
2021/09/18 04:20:16;;;;;;;19.02;9.95;;;19.70;82.30;;;;;;5017355;28;20160;-62
2021/09/18 04:22:42;;;;;;;22.38;11.18;;;19.70;82.50;;;;;;5016008;28;20121;-62
2021/09/18 04:25:09;;;;;;;24.75;12.75;;;19.70;82.60;;;;;;5017028;28;20485;-62
2021/09/18 04:27:34;;;;;;;34.83;16.90;;;19.80;82.60;;;;;;5016853;28;20029;-62
2021/09/18 04:30:00;;;;;;;41.80;18.67;;;19.80;82.60;;;;;;5016884;28;20429;-62
2021/09/18 04:32:26;;;;;;;41.75;19.02;;;19.80;82.60;;;;;;5016924;28;20117;-62
2021/09/18 04:34:51;;;;;;;38.13;17.98;;;19.80;82.60;;;;;;5016115;28;20025;-62
2021/09/18 04:37:17;;;;;;;38.95;18.25;;;19.70;82.80;;;;;;5016877;28;20022;-62
2021/09/18 04:39:43;;;;;;;35.15;18.30;;;19.80;83.00;;;;;;5015822;28;20363;-62
2021/09/18 04:42:08;;;;;;;26.63;15.20;;;19.80;83.00;;;;;;5016822;28;20470;-62
2021/09/18 04:44:34;;;;;;;20.23;11.68;;;19.80;83.00;;;;;;5016673;28;20382;-62
2021/09/18 04:47:00;;;;;;;16.85;9.52;;;19.80;83.10;;;;;;5016717;28;20429;-62
2021/09/18 04:49:26;;;;;;;12.90;10.63;;;19.80;83.10;;;;;;5015008;28;20491;-62
2021/09/18 04:51:52;;;;;;;12.88;8.68;;;19.90;83.20;;;;;;5016389;28;20071;-62
2021/09/18 04:54:17;;;;;;;9.05;7.97;;;19.90;83.20;;;;;;5016699;28;20025;-62
2021/09/18 04:56:43;;;;;;;13.07;9.60;;;19.90;83.20;;;;;;5002955;28;20030;-62
2021/09/18 04:59:08;;;;;;;8.40;7.00;;;19.90;83.20;;;;;;5010061;28;20026;-62
2021/09/18 05:01:34;;;;;;;9.63;7.30;;;19.90;83.20;;;;;;5016398;28;20402;-62
2021/09/18 05:04:00;;;;;;;7.63;6.82;;;20.00;83.20;;;;;;5016387;28;20026;-62
2021/09/18 05:06:25;;;;;;;8.30;7.35;;;20.00;83.20;;;;;;5016291;28;20098;-62
2021/09/18 05:08:51;;;;;;;8.63;6.78;;;20.10;83.30;;;;;;5015186;28;20026;-62
2021/09/18 05:11:16;;;;;;;11.25;6.70;;;20.10;83.20;;;;;;5016136;28;20057;-62
2021/09/18 05:13:42;;;;;;;11.15;6.72;;;20.10;83.20;;;;;;5013309;28;20092;-62
2021/09/18 05:16:08;;;;;;;7.65;6.57;;;20.20;83.70;;;;;;5015924;28;20022;-62
2021/09/18 05:18:33;;;;;;;6.80;6.00;;;20.10;83.10;;;;;;5016247;28;20025;-62
2021/09/18 05:20:59;;;;;;;7.80;6.60;;;20.20;83.30;;;;;;5015959;28;20028;-62
2021/09/18 05:23:25;;;;;;;9.18;7.03;;;20.30;83.30;;;;;;5010766;28;20411;-62
2021/09/18 05:25:50;;;;;;;8.55;6.50;;;20.40;83.10;;;;;;5015162;28;20026;-62
2021/09/18 05:28:16;;;;;;;9.38;6.38;;;20.40;83.10;;;;;;5010301;28;20534;-63
2021/09/18 05:30:41;;;;;;;6.97;5.38;;;20.50;83.10;;;;;;4996179;28;20038;-63
2021/09/18 05:33:07;;;;;;;10.15;7.10;;;20.60;83.00;;;;;;4995848;28;20037;-62
2021/09/18 05:35:33;;;;;;;8.30;7.32;;;20.70;82.90;;;;;;4995934;28;20027;-62
2021/09/18 05:37:58;;;;;;;8.10;6.78;;;20.80;82.60;;;;;;4995853;28;20026;-62
2021/09/18 05:40:26;;;;;;;14.02;8.70;;;20.90;82.40;;;;;;4995882;28;20414;-62
2021/09/18 05:42:52;;;;;;;11.00;9.48;;;20.90;82.10;;;;;;4996026;28;20113;-62
2021/09/18 05:45:18;;;;;;;12.68;10.05;;;21.00;81.80;;;;;;4997285;28;20062;-62
2021/09/18 05:47:44;;;;;;;11.70;9.88;;;21.10;81.50;;;;;;4995754;28;20436;-62
2021/09/18 05:50:09;;;;;;;13.32;10.85;;;21.20;81.40;;;;;;4995820;28;20030;-62
2021/09/18 05:52:35;;;;;;;13.77;10.68;;;21.20;81.30;;;;;;4997787;28;20037;-62
2021/09/18 05:55:01;;;;;;;10.95;9.65;;;21.30;81.10;;;;;;5013715;28;20025;-62
2021/09/18 05:57:26;;;;;;;12.65;10.10;;;21.30;80.80;;;;;;5015039;28;20053;-62
2021/09/18 05:59:52;;;;;;;11.50;9.77;;;21.40;80.60;;;;;;5012755;28;20029;-62
2021/09/18 06:02:18;;;;;;;11.38;9.15;;;21.40;80.40;;;;;;4995279;28;20032;-62
2021/09/18 06:04:43;;;;;;;12.00;9.40;;;21.40;80.40;;;;;;4995578;28;20490;-62
2021/09/18 06:07:09;;;;;;;11.55;9.20;;;21.40;80.30;;;;;;4995153;28;20507;-62
2021/09/18 06:09:35;;;;;;;14.68;9.50;;;21.40;80.20;;;;;;4995264;28;20026;-62
2021/09/18 06:12:00;;;;;;;11.68;9.02;;;21.30;80.10;;;;;;4995086;28;20030;-62
2021/09/18 06:14:26;;;;;;;12.13;9.43;;;21.30;80.20;;;;;;5007851;28;20374;-62
2021/09/18 06:16:52;;;;;;;10.25;9.20;;;21.30;80.30;;;;;;5014022;28;20137;-62
2021/09/18 06:19:19;;;;;;;11.38;10.07;;;21.30;80.50;;;;;;5014551;28;20034;-62
2021/09/18 06:21:46;;;;;;;11.25;9.95;;;21.30;80.20;;;;;;5014507;28;20320;-62
2021/09/18 06:24:13;;;;;;;11.93;8.90;;;21.30;80.20;;;;;;5014251;28;20403;-62
2021/09/18 06:26:40;;;;;;;11.55;8.55;;;21.30;80.40;;;;;;5014274;28;20030;-62
2021/09/18 06:29:05;;;;;;;11.70;9.48;;;21.40;80.40;;;;;;5014498;28;20030;-62
2021/09/18 06:31:31;;;;;;;9.90;8.63;;;21.40;80.40;;;;;;5014278;28;20033;-62
2021/09/18 06:33:57;;;;;;;13.70;9.10;;;21.50;80.50;;;;;;5013445;28;20413;-62
2021/09/18 06:36:23;;;;;;;9.13;8.02;;;21.50;80.50;;;;;;5014599;28;20083;-62
2021/09/18 06:38:48;;;;;;;10.32;8.43;;;21.60;80.30;;;;;;5014304;28;20030;-62
2021/09/18 06:41:14;;;;;;;10.05;7.78;;;21.60;80.30;;;;;;5014112;28;20026;-62
2021/09/18 06:43:40;;;;;;;9.27;8.15;;;21.60;80.20;;;;;;5013476;28;20029;-63
2021/09/18 06:46:05;;;;;;;10.35;8.70;;;21.60;80.10;;;;;;5013398;28;20052;-63
2021/09/18 06:48:31;;;;;;;9.00;7.95;;;21.70;80.00;;;;;;5013973;28;20504;-63
2021/09/18 06:50:57;;;;;;;10.43;8.10;;;21.60;79.90;;;;;;5012660;28;20026;-62
2021/09/18 06:53:23;;;;;;;9.82;8.18;;;21.70;79.90;;;;;;5014201;28;20026;-62
2021/09/18 06:55:49;;;;;;;11.55;8.50;;;21.70;80.00;;;;;;5013598;28;20072;-63
2021/09/18 06:58:14;;;;;;;11.70;9.02;;;21.70;80.00;;;;;;5014351;28;20061;-63
2021/09/18 07:00:40;;;;;;;11.30;8.90;;;21.70;80.00;;;;;;5014034;28;20032;-62
2021/09/18 07:03:06;;;;;;;13.88;10.45;;;21.70;79.80;;;;;;5014489;28;20100;-62
2021/09/18 07:05:32;;;;;;;13.30;8.90;;;21.70;79.90;;;;;;5013554;28;20029;-62
2021/09/18 07:07:58;;;;;;;13.48;9.30;;;21.70;79.90;;;;;;5012678;28;20030;-63
2021/09/18 07:10:23;;;;;;;11.77;9.52;;;21.60;79.70;;;;;;5013749;28;20048;-63
2021/09/18 07:12:49;;;;;;;10.82;8.48;;;21.60;79.80;;;;;;5012752;28;20061;-63
2021/09/18 07:15:15;;;;;;;11.95;9.82;;;21.60;79.80;;;;;;5013505;28;20421;-62
2021/09/18 07:17:41;;;;;;;12.85;8.98;;;21.50;79.80;;;;;;5013752;28;20018;-62
2021/09/18 07:20:07;;;;;;;11.07;8.38;;;21.50;79.90;;;;;;5013812;28;20492;-62
2021/09/18 07:22:33;;;;;;;12.95;8.57;;;21.50;80.20;;;;;;5013127;28;20048;-62
2021/09/18 07:24:59;;;;;;;13.98;10.10;;;21.50;80.20;;;;;;5006386;28;20109;-63
2021/09/18 07:27:25;;;;;;;13.45;10.00;;;21.50;80.20;;;;;;5000062;28;20025;-63
2021/09/18 07:29:51;;;;;;;13.18;9.70;;;21.50;80.30;;;;;;5013880;28;20030;-63
2021/09/18 07:32:18;;;;;;;12.32;11.02;;;21.50;80.30;;;;;;5012915;28;20030;-63
2021/09/18 07:34:43;;;;;;;13.75;10.52;;;21.50;80.40;;;;;;5013418;28;20124;-62
2021/09/18 07:37:09;;;;;;;12.20;9.45;;;21.50;80.50;;;;;;5012550;28;20116;-62
2021/09/18 07:39:35;;;;;;;12.20;9.80;;;21.40;80.40;;;;;;5013677;28;20356;-63
2021/09/18 07:42:01;;;;;;;11.82;9.23;;;21.40;80.40;;;;;;4997993;28;20054;-63
2021/09/18 07:44:26;;;;;;;12.05;9.32;;;21.40;80.50;;;;;;5012550;28;20113;-63
2021/09/18 07:46:52;;;;;;;13.60;9.63;;;21.40;80.70;;;;;;5011795;28;20048;-63
2021/09/18 07:49:18;;;;;;;12.25;10.25;;;21.40;80.70;;;;;;5013295;28;20398;-63
2021/09/18 07:51:44;;;;;;;10.45;8.23;;;21.30;80.70;;;;;;5011440;28;20026;-63
2021/09/18 07:54:10;;;;;;;11.90;9.85;;;21.30;80.70;;;;;;5013351;28;20033;-63
2021/09/18 07:56:36;;;;;;;9.90;8.55;;;21.30;80.90;;;;;;5010447;28;20100;-62
2021/09/18 07:59:02;;;;;;;11.57;8.38;;;21.30;81.00;;;;;;5011922;28;20108;-63
2021/09/18 08:01:30;;;;;;;10.77;8.48;;;21.30;81.00;;;;;;5012542;28;20030;-63
2021/09/18 08:04:01;;;;;;;10.32;9.05;;;21.20;81.10;;;;;;5000421;28;20530;-63
2021/09/18 08:06:27;;;;;;;10.95;9.23;;;21.20;81.30;;;;;;5013075;28;20022;-63
2021/09/18 08:08:53;;;;;;;10.48;9.13;;;21.20;81.30;;;;;;5013363;28;20034;-63
2021/09/18 08:11:20;;;;;;;12.48;9.45;;;21.20;81.60;;;;;;5011988;28;20034;-63
2021/09/18 08:13:46;;;;;;;10.40;9.30;;;21.10;81.60;;;;;;5013047;28;20034;-63
2021/09/18 08:16:12;;;;;;;10.95;9.30;;;21.10;81.70;;;;;;5013165;28;20034;-63
2021/09/18 08:18:38;;;;;;;11.23;9.80;;;21.10;81.90;;;;;;5013189;28;20032;-63
2021/09/18 08:21:04;;;;;;;11.18;9.02;;;21.10;81.90;;;;;;5011330;28;20022;-62
2021/09/18 08:23:30;;;;;;;11.00;9.55;;;21.00;81.90;;;;;;5012976;28;20058;-62
2021/09/18 08:25:55;;;;;;;10.38;8.82;;;21.00;82.10;;;;;;5012983;28;20483;-62
2021/09/18 08:28:21;;;;;;;10.80;9.02;;;21.00;82.30;;;;;;5008650;28;20033;-62
2021/09/18 08:30:47;;;;;;;11.20;9.40;;;21.00;82.20;;;;;;5013195;28;20513;-62
2021/09/18 08:33:13;;;;;;;14.40;9.77;;;21.00;82.30;;;;;;5012856;28;20029;-63
2021/09/18 08:35:38;;;;;;;13.32;9.32;;;21.00;82.70;;;;;;5012991;28;20057;-63
2021/09/18 08:38:04;;;;;;;11.70;9.80;;;20.90;82.70;;;;;;5012839;28;20021;-63
2021/09/18 08:40:36;;;;;;;12.43;8.70;;;20.90;82.90;;;;;;5012912;28;20433;-63
2021/09/18 08:43:01;;;;;;;10.73;9.02;;;20.90;83.00;;;;;;5012144;28;20355;-63
2021/09/18 08:45:27;;;;;;;9.77;8.77;;;20.90;83.30;;;;;;5016101;28;20041;-62
2021/09/18 08:47:53;;;;;;;9.93;8.60;;;20.90;83.50;;;;;;5016336;28;20034;-62
2021/09/18 08:50:22;;;;;;;10.88;9.43;;;20.90;83.60;;;;;;5015488;28;20040;-62
2021/09/18 08:52:49;;;;;;;10.68;8.93;;;20.90;83.80;;;;;;5016495;28;20402;-62
2021/09/18 08:55:15;;;;;;;9.70;8.63;;;20.90;84.10;;;;;;5016134;28;20018;-62
2021/09/18 08:57:42;;;;;;;12.60;9.05;;;20.90;84.10;;;;;;5016161;28;20022;-62
2021/09/18 09:00:29;;;;;;;11.15;9.27;;;20.90;84.30;;;;;;5015665;28;20069;-62
2021/09/18 09:02:55;;;;;;;11.18;9.40;;;20.90;84.40;;;;;;5016004;28;20379;-63
2021/09/18 09:05:26;;;;;;;10.50;9.23;;;20.90;84.60;;;;;;5016082;28;20085;-63
2021/09/18 09:08:04;;;;;;;11.73;9.77;;;20.80;84.70;;;;;;5014874;28;20108;-63
2021/09/18 09:10:30;;;;;;;12.23;10.02;;;20.80;84.80;;;;;;5015911;28;20030;-63
2021/09/18 09:13:07;;;;;;;10.38;9.27;;;20.70;85.20;;;;;;5016057;28;20548;-63
2021/09/18 09:15:33;;;;;;;12.07;9.45;;;20.70;85.30;;;;;;5014458;28;20127;-63
2021/09/18 09:18:23;;;;;;;10.80;8.55;;;20.70;85.80;;;;;;5020975;28;20093;-62
2021/09/18 09:21:06;;;;;;;13.55;9.98;;;20.80;85.80;;;;;;5021379;28;20462;-63
2021/09/18 09:23:33;;;;;;;14.93;9.93;;;20.80;86.10;;;;;;5019700;28;20050;-63
2021/09/18 09:25:59;;;;;;;11.02;9.40;;;20.80;86.10;;;;;;5017912;28;20032;-62
2021/09/18 09:28:34;;;;;;;12.57;10.18;;;20.80;86.20;;;;;;5014856;28;20108;-62
2021/09/18 09:31:26;;;;;;;10.00;9.00;;;20.90;86.30;;;;;;5019827;28;20014;-63
2021/09/18 09:34:14;;;;;;;10.63;8.35;;;20.90;86.10;;;;;;5011333;28;20038;-63
2021/09/18 09:36:50;;;;;;;11.93;9.30;;;20.90;86.00;;;;;;5017712;28;20053;-62
2021/09/18 09:39:19;;;;;;;12.00;9.50;;;20.90;86.30;;;;;;5021240;28;20095;-63
2021/09/18 09:42:05;;;;;;;13.55;10.02;;;20.90;86.50;;;;;;5019139;28;20022;-63
2021/09/18 09:44:33;;;;;;;11.93;10.27;;;20.90;86.60;;;;;;5022552;28;20425;-63
2021/09/18 09:47:03;;;;;;;10.80;9.40;;;20.90;86.80;;;;;;5015485;28;20095;-62
2021/09/18 09:49:51;;;;;;;11.43;9.60;;;20.90;86.90;;;;;;5013998;28;20026;-63
2021/09/18 09:52:29;;;;;;;9.82;8.10;;;20.90;86.50;;;;;;5014912;28;20132;-63
2021/09/18 09:55:05;;;;;;;10.05;9.05;;;20.90;86.80;;;;;;5020126;28;20034;-63
2021/09/18 09:57:31;;;;;;;11.02;9.13;;;20.90;86.90;;;;;;5014859;28;20033;-62
2021/09/18 10:00:13;;;;;;;11.43;8.75;;;20.90;86.90;;;;;;5019020;28;20025;-62
2021/09/18 10:02:40;;;;;;;11.27;9.10;;;20.90;86.80;;;;;;5020423;28;20442;-62
2021/09/18 10:05:10;;;;;;;9.68;8.68;;;20.90;87.70;;;;;;5015216;28;20026;-62
2021/09/18 10:07:36;;;;;;;11.25;10.05;;;20.90;87.00;;;;;;5013894;28;20037;-62
2021/09/18 10:10:03;;;;;;;10.88;9.77;;;20.90;87.10;;;;;;5012359;28;20120;-63
2021/09/18 10:12:29;;;;;;;11.05;9.85;;;20.80;87.30;;;;;;5015127;28;20673;-63
2021/09/18 10:14:55;;;;;;;10.07;8.88;;;20.80;87.50;;;;;;5018939;28;20060;-63
2021/09/18 10:17:22;;;;;;;10.23;8.85;;;20.70;87.60;;;;;;5015762;28;20037;-63
2021/09/18 10:25:04;;;;;;;9.60;8.10;;;20.70;88.10;;;;;;5013179;28;20525;-62
2021/09/18 10:27:30;;;;;;;12.93;9.02;;;20.70;88.20;;;;;;5015841;28;20053;-62
2021/09/18 10:29:56;;;;;;;11.32;9.05;;;20.70;88.40;;;;;;5021161;28;20516;-62
2021/09/18 10:32:24;;;;;;;11.00;8.30;;;20.70;88.60;;;;;;5023999;28;20036;-62
2021/09/18 10:35:09;;;;;;;7.82;6.97;;;20.60;88.70;;;;;;5017423;28;20148;-63
2021/09/18 10:37:38;;;;;;;8.63;7.13;;;20.60;88.50;;;;;;5005994;28;20487;-63
2021/09/18 10:40:13;;;;;;;8.10;6.40;;;20.60;89.00;;;;;;5026835;28;20028;-63
2021/09/18 10:42:44;;;;;;;6.50;5.53;;;20.60;89.00;;;;;;5016450;28;20486;-63
2021/09/18 10:45:11;;;;;;;;;;;20.60;89.30;;;;;;5022542;28;20217;-63
2021/09/18 10:47:49;;;;;;;7.28;6.13;;;20.50;88.70;;;;;;5011907;28;19905;-63
2021/09/18 10:50:21;;;;;;;7.25;6.30;;;20.60;89.20;;;;;;5018505;28;20493;-62
2021/09/18 10:52:57;;;;;;;6.80;5.82;;;20.60;89.40;;;;;;5026138;28;20041;-63
2021/09/18 10:55:22;;;;;;;8.25;5.68;;;20.60;89.20;;;;;;5016461;28;20505;-63
2021/09/18 10:57:51;;;;;;;7.22;5.95;;;20.60;89.50;;;;;;5014538;28;20026;-63
2021/09/18 11:00:19;;;;;;;7.05;6.35;;;20.60;89.50;;;;;;5026534;28;20021;-63
2021/09/18 11:02:49;;;;;;;7.25;5.70;;;20.60;89.70;;;;;;5016772;28;20489;-63
2021/09/18 11:05:20;;;;;;;6.13;5.53;;;20.60;89.70;;;;;;5017797;28;20040;-63
2021/09/18 11:08:03;;;;;;;5.95;5.22;;;20.60;89.60;;;;;;5014424;28;20025;-63
2021/09/18 11:10:28;;;;;;;6.07;4.80;;;20.60;89.80;;;;;;5022614;28;20096;-63
2021/09/18 11:13:09;;;;;;;5.93;5.03;;;20.60;89.90;;;;;;5011659;28;20227;-62
2021/09/18 11:15:48;;;;;;;6.05;4.43;;;20.50;89.70;;;;;;5012313;28;20477;-63
2021/09/18 11:18:15;;;;;;;7.30;4.88;;;20.60;90.00;;;;;;5015821;28;20363;-63
2021/09/18 11:20:41;;;;;;;7.85;5.25;;;20.60;90.20;;;;;;5023587;28;20022;-63
2021/09/18 11:23:09;;;;;;;9.20;6.10;;;20.60;90.20;;;;;;5025917;28;20037;-63
2021/09/18 11:25:37;;;;;;;8.82;6.13;;;20.60;90.20;;;;;;5016517;28;20030;-63
2021/09/18 11:28:08;;;;;;;9.40;6.18;;;20.60;90.20;;;;;;5011942;28;20109;-63
2021/09/18 11:30:53;;;;;;;12.05;6.07;;;20.60;90.30;;;;;;5027351;28;20058;-63
2021/09/18 11:33:21;;;;;;;10.15;5.95;;;20.70;90.10;;;;;;5026785;28;20041;-63
2021/09/18 11:35:59;;;;;;;9.50;4.95;;;20.70;90.20;;;;;;5008968;28;20017;-63
2021/09/18 11:38:31;;;;;;;6.13;3.55;;;20.70;90.10;;;;;;5015045;28;20018;-63
2021/09/18 11:41:07;;;;;;;4.82;3.00;;;20.70;89.90;;;;;;5024217;28;20093;-63
2021/09/18 11:43:34;;;;;;;3.78;2.80;;;20.70;89.70;;;;;;5011975;28;20034;-63
2021/09/18 11:46:00;;;;;;;3.60;2.83;;;20.60;89.60;;;;;;5016989;28;20429;-63
2021/09/18 11:48:31;;;;;;;4.70;2.80;;;20.60;89.40;;;;;;5015673;28;20040;-63
2021/09/18 11:50:57;;;;;;;5.03;3.13;;;20.60;89.10;;;;;;5029833;28;20030;-63
2021/09/18 11:53:23;;;;;;;4.70;3.42;;;20.60;89.10;;;;;;5026501;28;20501;-63
2021/09/18 11:55:54;;;;;;;4.50;3.20;;;20.60;89.10;;;;;;5017536;28;20026;-63
2021/09/18 11:58:25;;;;;;;5.22;3.60;;;20.60;89.00;;;;;;5015335;28;20085;-63
2021/09/18 12:00:53;;;;;;;5.10;3.60;;;20.60;88.90;;;;;;5029657;28;20060;-63
2021/09/18 12:03:27;;;;;;;4.68;3.55;;;20.60;88.70;;;;;;5022107;28;20018;-62
2021/09/18 12:06:14;;;;;;;5.68;3.78;;;20.60;88.50;;;;;;5013505;28;20097;-63
2021/09/18 12:08:42;;;;;;;5.28;4.00;;;20.60;88.40;;;;;;5014103;28;20501;-63
2021/09/18 12:11:08;;;;;;;7.70;5.20;;;20.60;88.60;;;;;;5013089;28;20085;-63
2021/09/18 12:13:38;;;;;;;6.80;5.53;;;20.60;88.80;;;;;;5016373;28;20026;-63
2021/09/18 12:16:05;;;;;;;7.28;6.00;;;20.60;88.80;;;;;;5016547;28;20516;-63
2021/09/18 12:18:36;;;;;;;6.28;5.43;;;20.60;88.80;;;;;;5016944;28;20034;-63
2021/09/18 12:21:20;;;;;;;6.70;5.88;;;20.70;88.70;;;;;;5033269;28;20477;-62
2021/09/18 12:24:00;;;;;;;8.73;6.28;;;20.70;88.50;;;;;;5026471;28;20050;-63
2021/09/18 12:26:34;;;;;;;7.03;5.95;;;20.70;88.50;;;;;;5021828;28;20113;-63
2021/09/18 12:29:13;;;;;;;6.90;6.20;;;20.70;88.30;;;;;;5021462;28;20111;-63
2021/09/18 12:31:42;;;;;;;7.35;6.25;;;20.70;88.30;;;;;;5027864;28;20401;-63
2021/09/18 12:34:13;;;;;;;7.00;5.43;;;20.70;88.60;;;;;;5023945;28;20038;-64
2021/09/18 12:36:39;;;;;;;7.88;6.68;;;20.70;88.90;;;;;;5023800;28;20461;-63
2021/09/18 12:39:06;;;;;;;7.25;6.10;;;20.70;89.00;;;;;;5018174;28;20076;-63
2021/09/18 12:41:34;;;;;;;8.15;6.47;;;20.70;88.90;;;;;;5025467;28;20108;-63
2021/09/18 12:44:05;;;;;;;8.93;7.63;;;20.70;88.90;;;;;;5017102;28;20030;-63
2021/09/18 12:46:39;;;;;;;10.20;7.70;;;20.80;89.00;;;;;;5022390;28;20033;-63
2021/09/18 12:49:06;;;;;;;8.93;7.40;;;20.80;88.80;;;;;;5016495;28;20037;-63